Time;durP1;ratioP1;P1;durP2;ratioP2;P2;SDS_P1;SDS_P2;PMS_P1;PMS_P2;Temp;Humidity;BMP_temperature;BMP_pressure;BME280_temperature;BME280_humidity;BME280_pressure;Samples;Min_cycle;Max_cycle;Signal;HPM_P1;HPM_P2
2021/11/03 00:01:10;;;;;;;;;14.75;11.25;;;;;;;;5054624;27;45386;-68
2021/11/03 00:03:35;;;;;;;;;23.50;14.50;;;;;;;;5069486;27;45527;-68
2021/11/03 00:06:01;;;;;;;;;18.50;14.25;;;;;;;;5070003;27;45618;-68
2021/11/03 00:08:27;;;;;;;;;11.25;10.50;;;;;;;;5069852;28;45400;-68
2021/11/03 00:10:54;;;;;;;;;12.50;10.25;;;;;;;;5069870;28;45437;-68
2021/11/03 00:13:20;;;;;;;;;16.25;12.25;;;;;;;;5073505;27;45504;-68
2021/11/03 00:15:45;;;;;;;;;15.00;11.50;;;;;;;;5071963;28;45495;-68
2021/11/03 00:18:11;;;;;;;;;12.25;10.00;;;;;;;;5071052;27;45480;-68
2021/11/03 00:20:36;;;;;;;;;14.00;13.75;;;;;;;;5064869;27;45579;-68
2021/11/03 00:23:02;;;;;;;;;14.25;14.00;;;;;;;;5067421;28;45460;-68
2021/11/03 00:25:27;;;;;;;;;10.50;9.25;;;;;;;;5072388;27;45449;-68
2021/11/03 00:27:52;;;;;;;;;14.67;11.67;;;;;;;;5072488;28;45417;-68
2021/11/03 00:30:18;;;;;;;;;11.00;10.00;;;;;;;;5072086;27;45520;-68
2021/11/03 00:32:44;;;;;;;;;16.25;12.75;;;;;;;;5075885;27;45632;-69
2021/11/03 00:35:09;;;;;;;;;14.75;11.25;;;;;;;;5069845;27;45895;-68
2021/11/03 00:37:34;;;;;;;;;12.75;12.00;;;;;;;;5072688;27;45422;-68
2021/11/03 00:40:00;;;;;;;;;15.33;13.00;;;;;;;;5076089;27;45535;-68
2021/11/03 00:42:25;;;;;;;;;13.67;10.67;;;;;;;;5078652;27;46687;-68
2021/11/03 00:44:50;;;;;;;;;14.67;12.00;;;;;;;;5077848;27;45452;-68
2021/11/03 00:47:15;;;;;;;;;13.00;11.00;;;;;;;;5078691;27;45844;-68
2021/11/03 00:49:40;;;;;;;;;15.67;14.00;;;;;;;;5083377;27;45559;-68
2021/11/03 00:52:06;;;;;;;;;13.00;13.00;;;;;;;;5073819;28;46488;-69
2021/11/03 00:54:31;;;;;;;;;14.25;13.25;;;;;;;;5082044;27;45441;-68
2021/11/03 00:56:56;;;;;;;;;13.67;13.67;;;;;;;;5079899;27;45451;-68
2021/11/03 00:59:21;;;;;;;;;16.33;11.67;;;;;;;;5075659;27;45394;-68
2021/11/03 01:01:47;;;;;;;;;17.33;13.00;;;;;;;;5084444;27;46599;-68
2021/11/03 01:04:13;;;;;;;;;13.00;10.00;;;;;;;;5086144;27;45401;-68
2021/11/03 01:06:38;;;;;;;;;15.75;12.25;;;;;;;;5075816;27;45388;-69
2021/11/03 01:09:03;;;;;;;;;11.67;11.33;;;;;;;;5084667;27;45523;-68
2021/11/03 01:11:29;;;;;;;;;13.75;11.50;;;;;;;;5079868;27;45580;-68
2021/11/03 01:13:54;;;;;;;;;14.67;9.33;;;;;;;;5077768;27;45493;-68
2021/11/03 01:16:19;;;;;;;;;14.00;13.50;;;;;;;;5084493;27;45421;-68
2021/11/03 01:18:45;;;;;;;;;15.00;11.25;;;;;;;;5074698;27;45830;-68
2021/11/03 01:21:10;;;;;;;;;10.00;9.00;;;;;;;;5085683;27;46465;-68
2021/11/03 01:23:36;;;;;;;;;9.00;9.00;;;;;;;;5082091;27;45355;-68
2021/11/03 01:26:01;;;;;;;;;16.50;11.25;;;;;;;;5077849;27;45472;-68
2021/11/03 01:28:26;;;;;;;;;14.67;9.33;;;;;;;;5077398;27;45495;-68
2021/11/03 01:30:52;;;;;;;;;9.25;9.25;;;;;;;;5077962;27;48569;-68
2021/11/03 01:33:18;;;;;;;;;15.25;8.00;;;;;;;;5078437;27;45488;-68
2021/11/03 01:35:43;;;;;;;;;12.50;9.25;;;;;;;;5077299;27;45504;-68
2021/11/03 01:38:09;;;;;;;;;9.75;8.25;;;;;;;;5076686;27;45398;-68
2021/11/03 01:40:36;;;;;;;;;12.75;9.25;;;;;;;;5086370;27;45351;-68
2021/11/03 01:43:01;;;;;;;;;10.75;10.50;;;;;;;;5073180;27;45915;-68
2021/11/03 01:45:28;;;;;;;;;10.25;8.00;;;;;;;;5082639;27;45598;-68
2021/11/03 01:47:55;;;;;;;;;8.50;8.50;;;;;;;;5077870;27;45480;-68
2021/11/03 01:50:23;;;;;;;;;12.50;9.00;;;;;;;;5107135;27;47359;-68
2021/11/03 01:52:51;;;;;;;;;14.25;10.50;;;;;;;;5088236;27;45773;-68
2021/11/03 01:55:17;;;;;;;;;9.00;8.00;;;;;;;;5072188;27;49101;-68
2021/11/03 01:57:46;;;;;;;;;9.50;8.50;;;;;;;;5079465;27;45368;-68
2021/11/03 02:00:15;;;;;;;;;6.00;6.00;;;;;;;;5077351;27;45466;-68
2021/11/03 02:02:42;;;;;;;;;7.50;7.00;;;;;;;;5077410;27;45904;-68
2021/11/03 02:05:08;;;;;;;;;9.25;6.50;;;;;;;;5079554;27;45421;-68
2021/11/03 02:07:34;;;;;;;;;5.00;5.00;;;;;;;;5075866;27;45502;-69
2021/11/03 02:09:59;;;;;;;;;6.25;6.00;;;;;;;;5090712;27;46512;-68
2021/11/03 02:12:26;;;;;;;;;5.67;5.33;;;;;;;;5093471;27;45616;-68
2021/11/03 02:14:53;;;;;;;;;10.00;6.50;;;;;;;;5081975;27;45617;-68
2021/11/03 02:17:19;;;;;;;;;7.25;5.75;;;;;;;;5079636;27;45464;-68
2021/11/03 02:19:44;;;;;;;;;4.00;4.00;;;;;;;;5071826;27;46489;-68
2021/11/03 02:22:18;;;;;;;;;5.25;4.50;;;;;;;;5065914;27;45518;-68
2021/11/03 02:24:48;;;;;;;;;4.00;4.00;;;;;;;;5071298;28;45440;-68
2021/11/03 02:27:14;;;;;;;;;7.50;4.50;;;;;;;;5086486;27;45407;-68
2021/11/03 02:29:39;;;;;;;;;6.25;4.00;;;;;;;;5058061;28;47153;-68
2021/11/03 02:32:25;;;;;;;;;7.67;3.00;;;;;;;;5072304;28;45439;-69
2021/11/03 02:34:50;;;;;;;;;6.75;6.75;;;;;;;;5070724;28;45447;-68
2021/11/03 02:37:28;;;;;;;;;5.75;2.00;;;;;;;;5071223;28;45478;-68
2021/11/03 02:39:57;;;;;;;;;2.00;2.00;;;;;;;;5073893;27;45734;-68
2021/11/03 02:42:24;;;;;;;;;7.25;3.00;;;;;;;;5072504;27;46414;-68
2021/11/03 02:44:51;;;;;;;;;5.50;4.75;;;;;;;;5072505;27;45765;-68
2021/11/03 02:47:16;;;;;;;;;6.25;6.25;;;;;;;;5059442;28;45423;-68
2021/11/03 02:49:41;;;;;;;;;11.00;7.67;;;;;;;;5072412;27;46570;-68
2021/11/03 02:52:11;;;;;;;;;8.00;7.00;;;;;;;;5084149;27;45406;-68
2021/11/03 02:54:36;;;;;;;;;8.00;7.00;;;;;;;;5077591;27;45393;-68
2021/11/03 02:57:02;;;;;;;;;7.67;6.67;;;;;;;;5073213;27;45338;-68
2021/11/03 02:59:28;;;;;;;;;7.00;6.50;;;;;;;;5076205;27;46178;-68
2021/11/03 03:01:54;;;;;;;;;5.67;3.00;;;;;;;;5074351;27;45654;-68
2021/11/03 03:04:27;;;;;;;;;9.25;6.25;;;;;;;;5075840;28;45395;-68
2021/11/03 03:06:52;;;;;;;;;9.75;8.75;;;;;;;;5077524;27;45514;-68
2021/11/03 03:09:18;;;;;;;;;9.00;7.50;;;;;;;;5079607;27;45461;-68
2021/11/03 03:11:47;;;;;;;;;10.50;7.50;;;;;;;;5075608;27;45663;-68
2021/11/03 03:14:13;;;;;;;;;6.00;4.50;;;;;;;;5074527;28;45579;-68
2021/11/03 03:16:39;;;;;;;;;5.50;4.50;;;;;;;;5079300;27;45441;-68
2021/11/03 03:19:04;;;;;;;;;8.00;8.00;;;;;;;;5074438;27;45512;-68
2021/11/03 03:21:30;;;;;;;;;5.33;4.00;;;;;;;;5081787;27;45384;-68
2021/11/03 03:23:55;;;;;;;;;4.75;4.75;;;;;;;;5078964;27;45374;-68
2021/11/03 03:26:21;;;;;;;;;12.00;7.25;;;;;;;;5077590;27;45464;-68
2021/11/03 03:28:47;;;;;;;;;9.00;8.00;;;;;;;;5081044;27;45955;-69
2021/11/03 03:31:13;;;;;;;;;9.00;7.00;;;;;;;;5085591;27;45559;-68
2021/11/03 03:33:39;;;;;;;;;7.50;7.00;;;;;;;;5091187;27;47133;-68
2021/11/03 03:36:04;;;;;;;;;7.50;7.50;;;;;;;;5078050;27;45551;-68
2021/11/03 03:38:29;;;;;;;;;13.75;5.75;;;;;;;;5079693;27;45520;-68
2021/11/03 03:40:54;;;;;;;;;6.00;5.33;;;;;;;;5088255;27;47077;-68
2021/11/03 03:43:20;;;;;;;;;6.67;6.67;;;;;;;;5075943;27;45557;-68
2021/11/03 03:45:45;;;;;;;;;8.00;5.33;;;;;;;;5082261;27;45530;-68
2021/11/03 03:48:10;;;;;;;;;8.00;6.33;;;;;;;;5080047;27;46576;-68
2021/11/03 03:50:36;;;;;;;;;10.67;7.00;;;;;;;;5083672;27;45500;-68
2021/11/03 03:53:01;;;;;;;;;6.25;6.25;;;;;;;;5085141;27;45336;-68
2021/11/03 03:55:27;;;;;;;;;7.75;7.75;;;;;;;;5074314;27;45708;-68
2021/11/03 03:57:53;;;;;;;;;7.25;7.00;;;;;;;;5077588;27;45461;-68
2021/11/03 04:00:19;;;;;;;;;7.25;7.00;;;;;;;;5081348;27;45612;-68
2021/11/03 04:02:45;;;;;;;;;8.00;7.50;;;;;;;;5086650;27;45297;-68
2021/11/03 04:05:11;;;;;;;;;12.00;7.00;;;;;;;;5086741;27;45378;-68
2021/11/03 04:07:36;;;;;;;;;8.75;7.00;;;;;;;;5075594;27;46634;-68
2021/11/03 04:10:02;;;;;;;;;5.33;5.33;;;;;;;;5089933;27;45571;-68
2021/11/03 04:12:27;;;;;;;;;10.25;7.25;;;;;;;;5080770;27;45639;-68
2021/11/03 04:14:53;;;;;;;;;9.25;7.00;;;;;;;;5077596;27;45481;-68
2021/11/03 04:17:18;;;;;;;;;7.67;5.33;;;;;;;;5078826;27;46368;-68
2021/11/03 04:19:43;;;;;;;;;7.25;5.25;;;;;;;;5089967;27;45550;-68
2021/11/03 04:22:08;;;;;;;;;9.67;7.00;;;;;;;;5074610;27;45488;-68
2021/11/03 04:24:34;;;;;;;;;8.00;4.33;;;;;;;;5095467;27;45390;-68
2021/11/03 04:26:59;;;;;;;;;10.50;7.00;;;;;;;;5077600;27;45378;-68
2021/11/03 04:29:25;;;;;;;;;8.25;8.25;;;;;;;;5080472;27;45553;-68
2021/11/03 04:31:50;;;;;;;;;5.67;4.00;;;;;;;;5080282;27;45497;-68
2021/11/03 04:34:15;;;;;;;;;8.50;7.00;;;;;;;;5086952;27;45376;-68
2021/11/03 04:36:41;;;;;;;;;7.00;7.00;;;;;;;;5079251;27;45402;-68
2021/11/03 04:39:08;;;;;;;;;7.25;7.25;;;;;;;;5082052;27;45332;-68
2021/11/03 04:41:33;;;;;;;;;14.25;8.75;;;;;;;;5078143;27;45774;-68
2021/11/03 04:43:58;;;;;;;;;7.00;7.00;;;;;;;;5075797;27;45475;-68
2021/11/03 04:46:23;;;;;;;;;7.67;7.67;;;;;;;;5088372;27;46538;-68
2021/11/03 04:48:49;;;;;;;;;8.00;7.67;;;;;;;;5082308;27;45432;-68
2021/11/03 04:51:15;;;;;;;;;9.50;8.75;;;;;;;;5086211;27;45544;-68
2021/11/03 04:53:40;;;;;;;;;11.75;8.00;;;;;;;;5080950;27;45899;-68
2021/11/03 04:56:05;;;;;;;;;11.00;9.00;;;;;;;;5079319;27;46139;-68
2021/11/03 04:58:31;;;;;;;;;9.33;9.00;;;;;;;;5076065;27;45445;-68
2021/11/03 05:00:56;;;;;;;;;12.00;9.75;;;;;;;;5089578;27;45464;-68
2021/11/03 05:03:22;;;;;;;;;13.50;12.00;;;;;;;;5088969;27;45307;-68
2021/11/03 05:05:47;;;;;;;;;13.33;10.67;;;;;;;;5078277;27;46453;-68
2021/11/03 05:08:13;;;;;;;;;16.75;13.75;;;;;;;;5069005;27;45754;-68
2021/11/03 05:10:39;;;;;;;;;17.33;12.00;;;;;;;;5079532;27;45581;-68
2021/11/03 05:13:04;;;;;;;;;16.50;9.50;;;;;;;;5072698;28;45437;-68
2021/11/03 05:15:29;;;;;;;;;12.25;9.50;;;;;;;;5081430;27;45609;-68
2021/11/03 05:17:55;;;;;;;;;15.50;11.25;;;;;;;;5077259;27;45799;-68
2021/11/03 05:20:20;;;;;;;;;16.33;11.33;;;;;;;;5076406;27;45465;-69
2021/11/03 05:22:47;;;;;;;;;18.67;13.00;;;;;;;;5077004;27;45413;-68
2021/11/03 05:25:18;;;;;;;;;14.75;13.50;;;;;;;;5091478;27;45408;-68
2021/11/03 05:27:43;;;;;;;;;18.00;12.00;;;;;;;;5081961;27;45358;-68
2021/11/03 05:30:09;;;;;;;;;13.75;12.00;;;;;;;;5071333;27;46109;-68
2021/11/03 05:32:34;;;;;;;;;16.00;15.75;;;;;;;;5076188;27;45334;-68
2021/11/03 05:34:59;;;;;;;;;24.33;15.67;;;;;;;;5076964;27;45604;-68
2021/11/03 05:37:26;;;;;;;;;18.33;17.00;;;;;;;;5075368;27;45857;-68
2021/11/03 05:39:51;;;;;;;;;17.75;13.50;;;;;;;;5076929;27;45422;-68
2021/11/03 05:42:17;;;;;;;;;18.50;14.50;;;;;;;;5078846;27;45482;-68
2021/11/03 05:44:42;;;;;;;;;23.00;16.33;;;;;;;;5077623;27;45689;-68
2021/11/03 05:47:07;;;;;;;;;18.00;16.00;;;;;;;;5076370;27;45425;-68
2021/11/03 05:49:34;;;;;;;;;14.50;13.00;;;;;;;;5073074;27;45397;-68
2021/11/03 05:52:00;;;;;;;;;19.75;18.00;;;;;;;;5074846;27;45305;-68
2021/11/03 05:54:27;;;;;;;;;20.75;15.75;;;;;;;;5079414;27;47141;-68
2021/11/03 05:56:53;;;;;;;;;17.00;12.25;;;;;;;;5078667;27;45861;-68
2021/11/03 05:59:18;;;;;;;;;21.25;16.75;;;;;;;;5077249;27;45540;-68
2021/11/03 06:01:44;;;;;;;;;22.25;16.50;;;;;;;;5084536;27;45543;-68
2021/11/03 06:04:09;;;;;;;;;21.33;18.00;;;;;;;;5070857;27;45667;-68
2021/11/03 06:06:34;;;;;;;;;26.00;17.33;;;;;;;;5091907;27;45432;-68
2021/11/03 06:08:59;;;;;;;;;21.33;17.67;;;;;;;;5080485;27;45485;-68
2021/11/03 06:11:25;;;;;;;;;26.67;19.00;;;;;;;;5084877;27;45384;-68
2021/11/03 06:13:51;;;;;;;;;18.25;15.25;;;;;;;;5086660;27;46287;-68
2021/11/03 06:16:16;;;;;;;;;17.33;11.00;;;;;;;;5074751;27;45513;-68
2021/11/03 06:18:41;;;;;;;;;20.00;17.33;;;;;;;;5082077;27;45399;-68
2021/11/03 06:21:07;;;;;;;;;14.67;14.00;;;;;;;;5053331;28;45618;-68
2021/11/03 06:23:32;;;;;;;;;23.25;17.25;;;;;;;;5054264;28;47033;-68
2021/11/03 06:25:58;;;;;;;;;16.67;15.67;;;;;;;;5072354;27;45666;-68
2021/11/03 06:28:23;;;;;;;;;23.75;18.75;;;;;;;;5072685;27;45499;-68
2021/11/03 06:30:49;;;;;;;;;21.00;17.25;;;;;;;;5075900;27;45549;-68
2021/11/03 06:33:14;;;;;;;;;23.50;17.00;;;;;;;;5075594;27;46774;-68
2021/11/03 06:35:40;;;;;;;;;19.00;16.67;;;;;;;;5077057;27;45457;-68
2021/11/03 06:38:06;;;;;;;;;19.50;19.50;;;;;;;;5088292;27;45273;-68
2021/11/03 06:40:32;;;;;;;;;23.00;19.25;;;;;;;;5088002;27;45501;-68
2021/11/03 06:42:57;;;;;;;;;20.25;18.75;;;;;;;;5078379;27;45541;-68
2021/11/03 06:45:23;;;;;;;;;22.00;18.33;;;;;;;;5062347;27;45433;-68
2021/11/03 06:47:49;;;;;;;;;23.50;18.50;;;;;;;;5078045;27;45548;-68
2021/11/03 06:50:16;;;;;;;;;20.00;14.00;;;;;;;;5056419;27;45539;-68
2021/11/03 06:52:41;;;;;;;;;17.75;15.25;;;;;;;;5069575;28;47781;-68
2021/11/03 06:55:07;;;;;;;;;21.25;15.75;;;;;;;;5075867;27;46016;-68
2021/11/03 06:57:33;;;;;;;;;22.50;20.00;;;;;;;;5091083;27;45461;-68
2021/11/03 06:59:58;;;;;;;;;23.33;19.00;;;;;;;;5079464;27;45535;-68
2021/11/03 07:02:23;;;;;;;;;20.75;19.25;;;;;;;;5082968;27;45379;-68
2021/11/03 07:04:49;;;;;;;;;24.00;19.00;;;;;;;;5087438;27;45432;-68
2021/11/03 07:07:14;;;;;;;;;24.33;17.33;;;;;;;;5074471;27;45654;-68
2021/11/03 07:09:39;;;;;;;;;22.00;20.50;;;;;;;;5083538;27;46788;-68
2021/11/03 07:12:05;;;;;;;;;21.00;20.33;;;;;;;;5082319;27;45616;-68
2021/11/03 07:14:30;;;;;;;;;23.33;19.33;;;;;;;;5080984;27;45869;-68
2021/11/03 07:16:55;;;;;;;;;23.67;20.33;;;;;;;;5081155;27;45461;-68
2021/11/03 07:19:21;;;;;;;;;21.33;20.00;;;;;;;;5076603;27;45505;-68
2021/11/03 07:21:46;;;;;;;;;22.25;18.75;;;;;;;;5089477;27;45433;-68
2021/11/03 07:24:13;;;;;;;;;25.00;19.00;;;;;;;;5080588;27;45492;-68
2021/11/03 07:26:41;;;;;;;;;27.75;21.25;;;;;;;;5079351;27;45481;-68
2021/11/03 07:29:08;;;;;;;;;28.00;21.25;;;;;;;;5078794;27;45509;-68
2021/11/03 07:31:33;;;;;;;;;25.75;22.25;;;;;;;;5077645;27;46369;-69
2021/11/03 07:33:58;;;;;;;;;27.00;21.00;;;;;;;;5076584;27;45492;-68
2021/11/03 07:36:23;;;;;;;;;27.67;20.00;;;;;;;;5087608;27;45493;-69
2021/11/03 07:38:50;;;;;;;;;26.00;19.67;;;;;;;;5076187;27;46726;-68
2021/11/03 07:41:15;;;;;;;;;18.75;18.75;;;;;;;;5072807;27;46177;-70
2021/11/03 07:43:42;;;;;;;;;25.50;21.00;;;;;;;;5075902;27;45412;-68
2021/11/03 07:46:08;;;;;;;;;23.75;23.75;;;;;;;;5073656;27;45418;-69
2021/11/03 07:48:33;;;;;;;;;28.25;22.25;;;;;;;;5079259;27;45579;-68
2021/11/03 07:51:00;;;;;;;;;27.33;19.67;;;;;;;;5087324;27;47155;-68
2021/11/03 07:53:26;;;;;;;;;27.00;20.00;;;;;;;;5076598;27;45390;-68
2021/11/03 07:55:54;;;;;;;;;19.50;18.00;;;;;;;;5076220;27;46776;-68
2021/11/03 07:58:21;;;;;;;;;22.00;19.75;;;;;;;;5082563;27;45311;-69
2021/11/03 08:00:47;;;;;;;;;26.75;22.75;;;;;;;;5076459;27;45670;-69
2021/11/03 08:03:12;;;;;;;;;24.75;18.75;;;;;;;;5079877;27;45380;-69
2021/11/03 08:05:37;;;;;;;;;25.33;21.33;;;;;;;;5083835;27;45354;-69
2021/11/03 08:08:10;;;;;;;;;24.00;19.00;;;;;;;;5085535;27;45417;-68
2021/11/03 08:10:36;;;;;;;;;29.00;22.75;;;;;;;;5077937;27;46122;-68
2021/11/03 08:13:01;;;;;;;;;22.00;20.00;;;;;;;;5076866;27;45522;-68
2021/11/03 08:15:26;;;;;;;;;21.67;17.33;;;;;;;;5085940;27;45326;-68
2021/11/03 08:17:52;;;;;;;;;25.00;19.67;;;;;;;;5079006;27;46779;-69
2021/11/03 08:20:20;;;;;;;;;26.00;20.25;;;;;;;;5081581;27;45290;-68
2021/11/03 08:22:45;;;;;;;;;25.00;18.75;;;;;;;;5078781;27;45867;-69
2021/11/03 08:25:11;;;;;;;;;26.50;20.50;;;;;;;;5070122;27;45455;-68
2021/11/03 08:27:36;;;;;;;;;16.33;15.33;;;;;;;;5064906;27;45485;-68
2021/11/03 08:30:02;;;;;;;;;25.50;20.00;;;;;;;;5067326;27;46034;-68
2021/11/03 08:32:30;;;;;;;;;20.50;16.75;;;;;;;;5069406;28;48515;-69
2021/11/03 08:34:56;;;;;;;;;23.50;19.00;;;;;;;;5073649;27;45511;-69
2021/11/03 08:37:25;;;;;;;;;57.50;42.25;;;;;;;;5069410;27;45502;-69
2021/11/03 08:39:52;;;;;;;;;31.00;20.00;;;;;;;;5073151;27;45625;-69
2021/11/03 08:42:18;;;;;;;;;22.50;14.75;;;;;;;;5063090;27;45922;-68
2021/11/03 08:44:43;;;;;;;;;22.50;16.75;;;;;;;;5071519;27;45441;-69
2021/11/03 08:47:09;;;;;;;;;25.33;21.33;;;;;;;;5076348;27;45674;-69
2021/11/03 08:49:35;;;;;;;;;25.00;19.00;;;;;;;;5080693;27;45586;-70
2021/11/03 08:52:01;;;;;;;;;18.25;15.75;;;;;;;;5068864;28;45589;-70
2021/11/03 08:54:26;;;;;;;;;16.00;15.25;;;;;;;;5068485;27;45524;-69
2021/11/03 08:56:51;;;;;;;;;16.33;16.00;;;;;;;;5065133;27;45354;-66
2021/11/03 08:59:16;;;;;;;;;21.33;17.33;;;;;;;;5086992;27;46716;-67
2021/11/03 09:01:42;;;;;;;;;22.33;19.00;;;;;;;;5081857;27;45426;-67
2021/11/03 09:04:08;;;;;;;;;23.75;19.75;;;;;;;;5074342;27;45463;-67
2021/11/03 09:06:34;;;;;;;;;22.00;19.33;;;;;;;;5071677;28;45366;-67
2021/11/03 09:09:00;;;;;;;;;25.75;22.25;;;;;;;;5069657;27;45682;-67
2021/11/03 09:11:27;;;;;;;;;22.67;18.67;;;;;;;;5068826;27;45668;-67
2021/11/03 09:13:52;;;;;;;;;20.75;19.25;;;;;;;;5068663;27;45733;-67
2021/11/03 09:16:18;;;;;;;;;22.50;21.50;;;;;;;;5073746;27;45401;-67
2021/11/03 09:18:43;;;;;;;;;23.00;20.75;;;;;;;;5075148;27;46624;-67
2021/11/03 09:21:09;;;;;;;;;25.50;21.25;;;;;;;;5076214;27;45416;-67
2021/11/03 09:23:35;;;;;;;;;21.25;19.25;;;;;;;;5066614;27;45396;-67
2021/11/03 09:26:02;;;;;;;;;22.00;18.00;;;;;;;;5072662;27;45491;-67
2021/11/03 09:28:29;;;;;;;;;20.75;17.25;;;;;;;;5079384;27;46580;-67
2021/11/03 09:30:55;;;;;;;;;16.75;15.75;;;;;;;;5071346;27;45942;-67
2021/11/03 09:33:21;;;;;;;;;19.75;16.50;;;;;;;;5075500;27;45584;-67
2021/11/03 09:35:47;;;;;;;;;17.25;16.25;;;;;;;;5084566;27;45745;-67
2021/11/03 09:38:14;;;;;;;;;17.75;15.50;;;;;;;;5080356;27;45578;-67
2021/11/03 09:40:50;;;;;;;;;17.75;16.75;;;;;;;;5077693;27;45419;-67
2021/11/03 09:43:27;;;;;;;;;18.75;16.50;;;;;;;;5068566;27;45927;-67
2021/11/03 09:45:52;;;;;;;;;13.50;13.50;;;;;;;;5067792;27;45484;-67
2021/11/03 09:48:22;;;;;;;;;12.75;12.50;;;;;;;;5095429;27;47533;-67
2021/11/03 09:50:49;;;;;;;;;15.00;11.75;;;;;;;;5064920;27;45538;-68
2021/11/03 09:53:24;;;;;;;;;13.75;13.00;;;;;;;;5066962;27;45469;-67
2021/11/03 09:55:50;;;;;;;;;12.25;12.25;;;;;;;;5058416;27;45452;-68
2021/11/03 09:58:30;;;;;;;;;13.00;11.50;;;;;;;;5071267;28;46693;-67
2021/11/03 10:00:55;;;;;;;;;15.50;12.75;;;;;;;;5067761;27;45761;-67
2021/11/03 10:03:29;;;;;;;;;12.00;11.50;;;;;;;;5064014;27;45508;-68
2021/11/03 10:06:13;;;;;;;;;14.50;10.25;;;;;;;;5071007;27;46215;-68
2021/11/03 10:08:43;;;;;;;;;15.75;13.50;;;;;;;;5071505;27;45580;-68
2021/11/03 10:11:23;;;;;;;;;17.00;14.00;;;;;;;;5071059;27;45678;-68
2021/11/03 10:13:49;;;;;;;;;15.75;13.75;;;;;;;;5076621;27;45432;-68
2021/11/03 10:16:14;;;;;;;;;16.00;12.00;;;;;;;;5059227;28;45433;-68
2021/11/03 10:18:49;;;;;;;;;16.33;13.67;;;;;;;;5062483;27;45494;-68
2021/11/03 10:21:22;;;;;;;;;15.25;12.75;;;;;;;;5066374;27;45516;-68
2021/11/03 10:23:49;;;;;;;;;14.50;12.75;;;;;;;;5069785;28;45519;-68
2021/11/03 10:26:14;;;;;;;;;15.50;14.00;;;;;;;;5072607;28;45462;-68
2021/11/03 10:28:42;;;;;;;;;15.67;11.00;;;;;;;;5062391;28;45412;-68
2021/11/03 10:31:25;;;;;;;;;12.25;11.00;;;;;;;;5063238;27;45401;-68
2021/11/03 10:33:57;;;;;;;;;15.50;11.50;;;;;;;;5073872;28;45670;-68
2021/11/03 10:36:24;;;;;;;;;11.75;9.50;;;;;;;;5079833;27;45377;-68
2021/11/03 10:39:01;;;;;;;;;9.25;9.25;;;;;;;;5074151;27;46608;-68
2021/11/03 10:41:34;;;;;;;;;11.00;9.50;;;;;;;;5103158;27;45611;-68
2021/11/03 10:43:59;;;;;;;;;10.50;10.25;;;;;;;;5070469;27;45537;-68
2021/11/03 10:46:29;;;;;;;;;10.33;8.33;;;;;;;;5092480;27;45508;-68
2021/11/03 10:49:13;;;;;;;;;9.75;9.75;;;;;;;;5060455;28;46028;-68
2021/11/03 10:51:40;;;;;;;;;12.00;10.00;;;;;;;;5072930;27;45594;-68
2021/11/03 10:54:10;;;;;;;;;9.50;7.50;;;;;;;;5070499;27;45390;-68
2021/11/03 10:56:53;;;;;;;;;14.50;10.00;;;;;;;;5073804;27;45479;-68
2021/11/03 10:59:19;;;;;;;;;14.00;13.00;;;;;;;;5062512;28;46314;-67
2021/11/03 11:01:45;;;;;;;;;10.33;9.00;;;;;;;;5062426;28;45445;-68
2021/11/03 11:04:18;;;;;;;;;12.25;12.00;;;;;;;;5063595;27;45353;-68
2021/11/03 11:06:46;;;;;;;;;11.25;11.25;;;;;;;;5073337;28;45523;-68
2021/11/03 11:09:24;;;;;;;;;6.75;6.75;;;;;;;;5071390;27;46528;-68
2021/11/03 11:11:51;;;;;;;;;10.25;10.25;;;;;;;;5073108;27;45617;-68
2021/11/03 11:14:21;;;;;;;;;10.50;8.75;;;;;;;;5070880;27;45518;-68
2021/11/03 11:16:59;;;;;;;;;13.25;8.50;;;;;;;;5062489;27;45684;-69
2021/11/03 11:19:42;;;;;;;;;10.25;9.75;;;;;;;;5064841;27;45487;-68
2021/11/03 11:22:22;;;;;;;;;10.00;8.50;;;;;;;;5073306;27;45490;-68
2021/11/03 11:25:01;;;;;;;;;10.25;9.25;;;;;;;;5073382;28;45434;-68
2021/11/03 11:27:29;;;;;;;;;10.25;8.75;;;;;;;;5061570;28;45442;-68
2021/11/03 11:29:57;;;;;;;;;10.25;10.25;;;;;;;;5063091;28;46551;-68
2021/11/03 11:32:29;;;;;;;;;13.25;11.00;;;;;;;;5097640;27;45513;-68
2021/11/03 11:34:54;;;;;;;;;11.50;9.50;;;;;;;;5064118;27;45567;-68
2021/11/03 11:37:26;;;;;;;;;11.25;9.75;;;;;;;;5057612;28;45476;-68
2021/11/03 11:39:54;;;;;;;;;9.25;8.00;;;;;;;;5092016;27;46628;-68
2021/11/03 11:42:23;;;;;;;;;9.50;9.50;;;;;;;;5103566;27;45964;-68
2021/11/03 11:44:51;;;;;;;;;8.50;8.50;;;;;;;;5106156;27;45436;-68
2021/11/03 11:47:19;;;;;;;;;10.50;10.00;;;;;;;;5070273;27;45489;-68
2021/11/03 11:49:45;;;;;;;;;11.00;9.75;;;;;;;;5074955;27;46592;-68
2021/11/03 11:52:13;;;;;;;;;12.00;10.75;;;;;;;;5056906;27;45370;-68
2021/11/03 11:54:40;;;;;;;;;8.25;8.00;;;;;;;;5064651;27;45646;-69
2021/11/03 11:57:06;;;;;;;;;10.75;7.00;;;;;;;;5073253;27;45393;-68
2021/11/03 11:59:50;;;;;;;;;8.67;6.67;;;;;;;;5069507;27;46584;-69
2021/11/03 12:02:22;;;;;;;;;6.75;6.75;;;;;;;;5063686;28;45491;-69
2021/11/03 12:04:47;;;;;;;;;7.50;7.50;;;;;;;;5101536;27;45606;-69
2021/11/03 12:07:23;;;;;;;;;10.00;7.25;;;;;;;;5053008;27;45845;-69
2021/11/03 12:09:58;;;;;;;;;7.25;7.00;;;;;;;;5102110;27;46435;-69
2021/11/03 12:12:23;;;;;;;;;6.75;5.75;;;;;;;;5072025;27;45656;-69
2021/11/03 12:14:52;;;;;;;;;6.00;6.00;;;;;;;;5064264;27;45499;-69
2021/11/03 12:17:36;;;;;;;;;8.25;7.00;;;;;;;;5058491;28;45744;-68
2021/11/03 12:20:37;;;;;;;;;15.25;9.25;;;;;;;;5063210;28;46398;-69
2021/11/03 12:23:03;;;;;;;;;8.00;8.00;;;;;;;;5020147;28;45827;-68
2021/11/03 12:25:28;;;;;;;;;12.00;9.00;;;;;;;;5024695;28;45522;-69
2021/11/03 12:28:16;;;;;;;;;9.00;7.67;;;;;;;;5057385;28;45616;-69
2021/11/03 12:30:43;;;;;;;;;8.00;8.00;;;;;;;;5011845;28;45644;-69
2021/11/03 12:33:10;;;;;;;;;10.00;7.75;;;;;;;;5030243;28;45450;-68
2021/11/03 12:35:35;;;;;;;;;7.25;6.50;;;;;;;;5022594;28;45678;-68
2021/11/03 12:38:09;;;;;;;;;8.33;7.00;;;;;;;;5030014;28;45573;-69
2021/11/03 12:40:34;;;;;;;;;11.25;8.00;;;;;;;;5028796;28;46463;-69
2021/11/03 12:43:18;;;;;;;;;4.67;4.67;;;;;;;;5038501;28;46060;-68
2021/11/03 12:46:03;;;;;;;;;9.25;7.00;;;;;;;;5028007;28;45695;-68
2021/11/03 12:48:30;;;;;;;;;7.75;6.00;;;;;;;;5038915;28;45855;-68
2021/11/03 12:50:55;;;;;;;;;9.00;6.00;;;;;;;;5027585;28;45664;-68
2021/11/03 12:53:25;;;;;;;;;5.00;4.25;;;;;;;;5027235;28;45345;-68
2021/11/03 12:55:50;;;;;;;;;5.25;5.00;;;;;;;;5036054;28;45586;-68
2021/11/03 12:58:31;;;;;;;;;10.67;8.67;;;;;;;;5056528;28;45587;-68
2021/11/03 13:00:57;;;;;;;;;8.00;6.00;;;;;;;;5058123;28;46388;-68
2021/11/03 13:03:24;;;;;;;;;7.00;7.00;;;;;;;;5088417;27;45517;-68
2021/11/03 13:05:51;;;;;;;;;6.00;6.00;;;;;;;;5069200;28;45747;-68
2021/11/03 13:08:24;;;;;;;;;6.75;6.00;;;;;;;;5069748;27;45524;-68
2021/11/03 13:11:01;;;;;;;;;4.00;4.00;;;;;;;;5060719;28;45562;-68
2021/11/03 13:13:26;;;;;;;;;6.25;5.75;;;;;;;;5075027;27;45583;-68
2021/11/03 13:15:58;;;;;;;;;6.00;4.67;;;;;;;;5073509;27;45552;-68
2021/11/03 13:18:32;;;;;;;;;6.25;5.25;;;;;;;;5068887;27;45634;-68
2021/11/03 13:20:59;;;;;;;;;5.00;4.75;;;;;;;;5068450;27;46501;-68
2021/11/03 13:23:25;;;;;;;;;6.00;4.75;;;;;;;;5059775;28;45787;-68
2021/11/03 13:25:52;;;;;;;;;5.00;4.00;;;;;;;;5061080;27;45612;-68
2021/11/03 13:28:25;;;;;;;;;8.50;4.25;;;;;;;;5072127;28;45673;-68
2021/11/03 13:30:58;;;;;;;;;5.75;3.75;;;;;;;;5057728;28;46292;-68
2021/11/03 13:33:26;;;;;;;;;4.25;4.25;;;;;;;;5062914;27;45315;-68
2021/11/03 13:36:00;;;;;;;;;6.50;4.50;;;;;;;;5060140;28;45534;-68
2021/11/03 13:38:27;;;;;;;;;4.00;4.00;;;;;;;;5059815;27;45731;-68
2021/11/03 13:40:54;;;;;;;;;4.25;4.25;;;;;;;;5057164;28;47229;-68
2021/11/03 13:43:19;;;;;;;;;5.00;3.50;;;;;;;;5070338;27;45479;-68
2021/11/03 13:45:47;;;;;;;;;5.00;4.25;;;;;;;;5087836;27;45357;-68
2021/11/03 13:48:12;;;;;;;;;4.00;4.00;;;;;;;;5071725;27;45511;-68
2021/11/03 13:50:44;;;;;;;;;5.33;4.00;;;;;;;;5081357;27;45510;-68
2021/11/03 13:53:09;;;;;;;;;3.75;3.50;;;;;;;;5081198;27;45666;-68
2021/11/03 13:55:49;;;;;;;;;4.50;2.00;;;;;;;;5072738;27;45667;-68
2021/11/03 13:58:38;;;;;;;;;2.00;2.00;;;;;;;;5055852;28;45567;-68
2021/11/03 14:01:13;;;;;;;;;3.25;2.75;;;;;;;;5076512;27;45644;-68
2021/11/03 14:03:56;;;;;;;;;2.00;2.00;;;;;;;;5078696;27;46176;-68
2021/11/03 14:06:48;;;;;;;;;3.00;2.00;;;;;;;;5084048;27;45334;-68
2021/11/03 14:09:15;;;;;;;;;3.00;1.50;;;;;;;;5015319;28;45391;-68
2021/11/03 14:11:41;;;;;;;;;4.25;3.00;;;;;;;;5006473;28;47380;-68
2021/11/03 14:14:07;;;;;;;;;3.00;3.00;;;;;;;;5011876;28;45551;-68
2021/11/03 14:16:47;;;;;;;;;5.00;4.50;;;;;;;;5009869;28;45521;-68
2021/11/03 14:19:32;;;;;;;;;4.50;3.75;;;;;;;;5019606;28;45458;-68
2021/11/03 14:21:59;;;;;;;;;5.00;2.25;;;;;;;;5028970;28;46574;-68
2021/11/03 14:24:25;;;;;;;;;3.50;3.50;;;;;;;;5026796;28;45530;-68
2021/11/03 14:26:51;;;;;;;;;4.75;4.50;;;;;;;;5020060;28;45435;-68
2021/11/03 14:29:16;;;;;;;;;3.25;3.25;;;;;;;;5023312;28;45547;-68
2021/11/03 14:31:42;;;;;;;;;7.33;5.00;;;;;;;;5030596;28;45527;-68